sensor_id;sensor_type;location;lat;lon;timestamp;P1;durP1;ratioP1;P2;durP2;ratioP2
14100;SDS011;7127;49.372;8.166;2022-07-01T00:02:02;0.43;;;0.40;;
14100;SDS011;7127;49.372;8.166;2022-07-01T00:04:29;0.50;;;0.50;;
14100;SDS011;7127;49.372;8.166;2022-07-01T00:06:56;0.40;;;0.40;;
14100;SDS011;7127;49.372;8.166;2022-07-01T00:09:24;1.03;;;0.60;;
14100;SDS011;7127;49.372;8.166;2022-07-01T00:11:52;0.50;;;0.50;;
14100;SDS011;7127;49.372;8.166;2022-07-01T00:14:19;0.80;;;0.70;;
14100;SDS011;7127;49.372;8.166;2022-07-01T00:16:49;0.60;;;0.60;;
14100;SDS011;7127;49.372;8.166;2022-07-01T00:19:16;0.60;;;0.40;;
14100;SDS011;7127;49.372;8.166;2022-07-01T00:21:43;0.97;;;0.40;;
14100;SDS011;7127;49.372;8.166;2022-07-01T00:24:10;0.40;;;0.40;;
14100;SDS011;7127;49.372;8.166;2022-07-01T00:26:37;0.43;;;0.43;;
14100;SDS011;7127;49.372;8.166;2022-07-01T00:29:04;0.33;;;0.33;;
14100;SDS011;7127;49.372;8.166;2022-07-01T00:31:31;0.60;;;0.60;;
14100;SDS011;7127;49.372;8.166;2022-07-01T00:33:59;0.50;;;0.50;;
14100;SDS011;7127;49.372;8.166;2022-07-01T00:36:26;0.70;;;0.37;;
14100;SDS011;7127;49.372;8.166;2022-07-01T00:38:53;0.37;;;0.37;;
14100;SDS011;7127;49.372;8.166;2022-07-01T00:41:20;0.50;;;0.47;;
14100;SDS011;7127;49.372;8.166;2022-07-01T00:43:47;0.50;;;0.50;;
14100;SDS011;7127;49.372;8.166;2022-07-01T00:46:14;0.30;;;0.30;;
14100;SDS011;7127;49.372;8.166;2022-07-01T00:48:43;0.50;;;0.50;;
14100;SDS011;7127;49.372;8.166;2022-07-01T00:51:11;0.70;;;0.50;;
14100;SDS011;7127;49.372;8.166;2022-07-01T00:53:39;0.40;;;0.40;;
14100;SDS011;7127;49.372;8.166;2022-07-01T00:56:07;0.40;;;0.40;;
14100;SDS011;7127;49.372;8.166;2022-07-01T00:58:34;0.87;;;0.50;;
14100;SDS011;7127;49.372;8.166;2022-07-01T01:01:01;0.70;;;0.60;;
14100;SDS011;7127;49.372;8.166;2022-07-01T01:03:28;0.63;;;0.40;;
14100;SDS011;7127;49.372;8.166;2022-07-01T01:05:56;0.53;;;0.53;;
14100;SDS011;7127;49.372;8.166;2022-07-01T01:08:25;1.10;;;0.60;;
14100;SDS011;7127;49.372;8.166;2022-07-01T01:10:52;0.60;;;0.60;;
14100;SDS011;7127;49.372;8.166;2022-07-01T01:13:20;0.87;;;0.80;;
14100;SDS011;7127;49.372;8.166;2022-07-01T01:15:47;0.80;;;0.80;;
14100;SDS011;7127;49.372;8.166;2022-07-01T01:18:14;0.90;;;0.90;;
14100;SDS011;7127;49.372;8.166;2022-07-01T01:20:42;0.80;;;0.80;;
14100;SDS011;7127;49.372;8.166;2022-07-01T01:23:09;1.40;;;0.80;;
14100;SDS011;7127;49.372;8.166;2022-07-01T01:25:36;1.33;;;1.10;;
14100;SDS011;7127;49.372;8.166;2022-07-01T01:28:03;1.50;;;0.90;;
14100;SDS011;7127;49.372;8.166;2022-07-01T01:30:30;0.97;;;0.90;;
14100;SDS011;7127;49.372;8.166;2022-07-01T01:32:58;1.10;;;1.00;;
14100;SDS011;7127;49.372;8.166;2022-07-01T01:35:25;1.20;;;1.10;;
14100;SDS011;7127;49.372;8.166;2022-07-01T01:37:53;1.20;;;1.10;;
14100;SDS011;7127;49.372;8.166;2022-07-01T01:40:20;1.63;;;1.13;;
14100;SDS011;7127;49.372;8.166;2022-07-01T01:42:47;1.23;;;1.00;;
14100;SDS011;7127;49.372;8.166;2022-07-01T01:45:14;1.20;;;1.10;;
14100;SDS011;7127;49.372;8.166;2022-07-01T01:47:41;1.30;;;1.20;;
14100;SDS011;7127;49.372;8.166;2022-07-01T01:50:09;1.23;;;1.13;;
14100;SDS011;7127;49.372;8.166;2022-07-01T01:52:37;1.27;;;1.10;;
14100;SDS011;7127;49.372;8.166;2022-07-01T01:55:09;1.37;;;1.20;;
14100;SDS011;7127;49.372;8.166;2022-07-01T01:57:36;1.10;;;1.00;;
14100;SDS011;7127;49.372;8.166;2022-07-01T02:00:04;1.20;;;1.10;;
14100;SDS011;7127;49.372;8.166;2022-07-01T02:02:33;1.10;;;1.00;;
14100;SDS011;7127;49.372;8.166;2022-07-01T02:05:01;1.27;;;1.00;;
14100;SDS011;7127;49.372;8.166;2022-07-01T02:07:28;1.00;;;0.90;;
14100;SDS011;7127;49.372;8.166;2022-07-01T02:09:55;1.60;;;1.30;;
14100;SDS011;7127;49.372;8.166;2022-07-01T02:12:24;0.90;;;0.90;;
14100;SDS011;7127;49.372;8.166;2022-07-01T02:14:51;1.43;;;1.30;;
14100;SDS011;7127;49.372;8.166;2022-07-01T02:17:18;1.00;;;1.00;;
14100;SDS011;7127;49.372;8.166;2022-07-01T02:19:44;1.33;;;1.10;;
14100;SDS011;7127;49.372;8.166;2022-07-01T02:22:11;2.67;;;1.40;;
14100;SDS011;7127;49.372;8.166;2022-07-01T02:24:38;1.60;;;1.50;;
14100;SDS011;7127;49.372;8.166;2022-07-01T02:27:05;1.30;;;1.20;;
14100;SDS011;7127;49.372;8.166;2022-07-01T02:29:34;1.37;;;1.27;;
14100;SDS011;7127;49.372;8.166;2022-07-01T02:32:01;1.33;;;1.23;;
14100;SDS011;7127;49.372;8.166;2022-07-01T02:34:28;1.23;;;1.17;;
14100;SDS011;7127;49.372;8.166;2022-07-01T02:36:55;1.40;;;1.30;;
14100;SDS011;7127;49.372;8.166;2022-07-01T02:39:22;1.50;;;1.30;;
14100;SDS011;7127;49.372;8.166;2022-07-01T02:41:49;1.20;;;1.00;;
14100;SDS011;7127;49.372;8.166;2022-07-01T02:44:35;1.17;;;0.97;;
14100;SDS011;7127;49.372;8.166;2022-07-01T02:47:02;0.93;;;0.93;;
14100;SDS011;7127;49.372;8.166;2022-07-01T02:49:30;1.50;;;1.03;;
14100;SDS011;7127;49.372;8.166;2022-07-01T02:51:57;1.10;;;0.83;;
14100;SDS011;7127;49.372;8.166;2022-07-01T02:54:24;1.27;;;1.17;;
14100;SDS011;7127;49.372;8.166;2022-07-01T02:56:51;1.20;;;1.10;;
14100;SDS011;7127;49.372;8.166;2022-07-01T02:59:18;1.10;;;1.00;;
14100;SDS011;7127;49.372;8.166;2022-07-01T03:01:46;1.10;;;1.00;;
14100;SDS011;7127;49.372;8.166;2022-07-01T03:04:13;0.90;;;0.90;;
14100;SDS011;7127;49.372;8.166;2022-07-01T03:06:40;1.10;;;1.00;;
14100;SDS011;7127;49.372;8.166;2022-07-01T03:09:07;1.27;;;0.80;;
14100;SDS011;7127;49.372;8.166;2022-07-01T03:11:34;0.50;;;0.50;;
14100;SDS011;7127;49.372;8.166;2022-07-01T03:14:01;0.73;;;0.70;;
14100;SDS011;7127;49.372;8.166;2022-07-01T03:16:28;1.00;;;0.90;;
14100;SDS011;7127;49.372;8.166;2022-07-01T03:18:57;1.03;;;0.90;;
14100;SDS011;7127;49.372;8.166;2022-07-01T03:21:24;0.70;;;0.70;;
14100;SDS011;7127;49.372;8.166;2022-07-01T03:23:51;1.03;;;0.87;;
14100;SDS011;7127;49.372;8.166;2022-07-01T03:26:18;0.97;;;0.87;;
14100;SDS011;7127;49.372;8.166;2022-07-01T03:28:45;0.83;;;0.70;;
14100;SDS011;7127;49.372;8.166;2022-07-01T03:31:12;0.70;;;0.70;;
14100;SDS011;7127;49.372;8.166;2022-07-01T03:33:39;0.80;;;0.80;;
14100;SDS011;7127;49.372;8.166;2022-07-01T03:36:07;0.70;;;0.70;;
14100;SDS011;7127;49.372;8.166;2022-07-01T03:38:34;1.00;;;0.77;;
14100;SDS011;7127;49.372;8.166;2022-07-01T03:41:01;1.90;;;0.80;;
14100;SDS011;7127;49.372;8.166;2022-07-01T03:43:28;0.80;;;0.80;;
14100;SDS011;7127;49.372;8.166;2022-07-01T03:45:55;0.60;;;0.60;;
14100;SDS011;7127;49.372;8.166;2022-07-01T03:48:22;0.77;;;0.77;;
14100;SDS011;7127;49.372;8.166;2022-07-01T03:50:50;0.60;;;0.60;;
14100;SDS011;7127;49.372;8.166;2022-07-01T03:53:19;1.07;;;0.50;;
14100;SDS011;7127;49.372;8.166;2022-07-01T03:56:03;0.90;;;0.80;;
14100;SDS011;7127;49.372;8.166;2022-07-01T03:58:30;0.80;;;0.80;;
14100;SDS011;7127;49.372;8.166;2022-07-01T04:00:57;0.60;;;0.60;;
14100;SDS011;7127;49.372;8.166;2022-07-01T04:03:24;0.60;;;0.57;;
14100;SDS011;7127;49.372;8.166;2022-07-01T04:05:51;1.03;;;0.50;;
14100;SDS011;7127;49.372;8.166;2022-07-01T04:08:20;0.70;;;0.60;;
14100;SDS011;7127;49.372;8.166;2022-07-01T04:10:47;1.10;;;0.80;;
14100;SDS011;7127;49.372;8.166;2022-07-01T04:13:18;0.50;;;0.50;;
14100;SDS011;7127;49.372;8.166;2022-07-01T04:15:46;0.63;;;0.60;;
14100;SDS011;7127;49.372;8.166;2022-07-01T04:18:13;0.70;;;0.70;;
14100;SDS011;7127;49.372;8.166;2022-07-01T04:20:40;0.87;;;0.70;;
14100;SDS011;7127;49.372;8.166;2022-07-01T04:23:07;0.63;;;0.63;;
14100;SDS011;7127;49.372;8.166;2022-07-01T04:25:34;2.43;;;0.70;;
14100;SDS011;7127;49.372;8.166;2022-07-01T04:28:01;0.50;;;0.50;;
14100;SDS011;7127;49.372;8.166;2022-07-01T04:30:28;2.03;;;0.57;;
14100;SDS011;7127;49.372;8.166;2022-07-01T04:32:55;1.63;;;0.70;;
14100;SDS011;7127;49.372;8.166;2022-07-01T04:35:22;0.60;;;0.60;;
14100;SDS011;7127;49.372;8.166;2022-07-01T04:37:49;0.80;;;0.80;;
14100;SDS011;7127;49.372;8.166;2022-07-01T04:40:19;0.83;;;0.70;;
14100;SDS011;7127;49.372;8.166;2022-07-01T04:42:47;0.83;;;0.83;;
14100;SDS011;7127;49.372;8.166;2022-07-01T04:45:13;0.70;;;0.70;;
14100;SDS011;7127;49.372;8.166;2022-07-01T04:47:40;1.03;;;0.70;;
14100;SDS011;7127;49.372;8.166;2022-07-01T04:50:08;1.13;;;0.90;;
14100;SDS011;7127;49.372;8.166;2022-07-01T04:52:35;0.80;;;0.80;;
14100;SDS011;7127;49.372;8.166;2022-07-01T04:55:03;1.53;;;0.80;;
14100;SDS011;7127;49.372;8.166;2022-07-01T04:57:31;0.70;;;0.70;;
14100;SDS011;7127;49.372;8.166;2022-07-01T04:59:59;0.83;;;0.80;;
14100;SDS011;7127;49.372;8.166;2022-07-01T05:02:26;0.60;;;0.60;;
14100;SDS011;7127;49.372;8.166;2022-07-01T05:04:53;0.70;;;0.60;;
14100;SDS011;7127;49.372;8.166;2022-07-01T05:07:20;0.70;;;0.70;;
14100;SDS011;7127;49.372;8.166;2022-07-01T05:09:57;0.83;;;0.60;;
14100;SDS011;7127;49.372;8.166;2022-07-01T05:12:25;0.60;;;0.60;;
14100;SDS011;7127;49.372;8.166;2022-07-01T05:14:52;0.70;;;0.70;;
14100;SDS011;7127;49.372;8.166;2022-07-01T05:17:20;0.60;;;0.60;;
14100;SDS011;7127;49.372;8.166;2022-07-01T05:20:09;0.80;;;0.70;;
14100;SDS011;7127;49.372;8.166;2022-07-01T05:22:54;0.87;;;0.70;;
14100;SDS011;7127;49.372;8.166;2022-07-01T05:25:22;0.90;;;0.90;;
14100;SDS011;7127;49.372;8.166;2022-07-01T05:27:49;1.00;;;0.70;;
14100;SDS011;7127;49.372;8.166;2022-07-01T05:30:16;0.90;;;0.50;;
14100;SDS011;7127;49.372;8.166;2022-07-01T05:32:45;0.80;;;0.80;;
14100;SDS011;7127;49.372;8.166;2022-07-01T05:35:12;0.63;;;0.63;;
14100;SDS011;7127;49.372;8.166;2022-07-01T05:37:39;0.90;;;0.70;;
14100;SDS011;7127;49.372;8.166;2022-07-01T05:40:07;0.77;;;0.60;;
14100;SDS011;7127;49.372;8.166;2022-07-01T05:42:35;0.97;;;0.83;;
14100;SDS011;7127;49.372;8.166;2022-07-01T05:45:02;3.87;;;1.10;;
14100;SDS011;7127;49.372;8.166;2022-07-01T05:47:29;1.30;;;0.80;;
14100;SDS011;7127;49.372;8.166;2022-07-01T05:49:58;0.70;;;0.70;;
14100;SDS011;7127;49.372;8.166;2022-07-01T05:52:25;0.60;;;0.60;;
14100;SDS011;7127;49.372;8.166;2022-07-01T05:54:52;0.73;;;0.70;;
14100;SDS011;7127;49.372;8.166;2022-07-01T05:57:19;1.23;;;1.07;;
14100;SDS011;7127;49.372;8.166;2022-07-01T05:59:46;1.20;;;1.00;;
14100;SDS011;7127;49.372;8.166;2022-07-01T06:02:13;0.87;;;0.80;;
14100;SDS011;7127;49.372;8.166;2022-07-01T06:04:40;1.63;;;0.90;;
14100;SDS011;7127;49.372;8.166;2022-07-01T06:07:09;1.57;;;1.13;;
14100;SDS011;7127;49.372;8.166;2022-07-01T06:09:36;1.03;;;0.73;;
14100;SDS011;7127;49.372;8.166;2022-07-01T06:12:04;0.70;;;0.70;;
14100;SDS011;7127;49.372;8.166;2022-07-01T06:14:32;0.70;;;0.70;;
14100;SDS011;7127;49.372;8.166;2022-07-01T06:16:59;0.80;;;0.80;;
14100;SDS011;7127;49.372;8.166;2022-07-01T06:19:26;0.90;;;0.90;;
14100;SDS011;7127;49.372;8.166;2022-07-01T06:21:53;1.00;;;0.90;;
14100;SDS011;7127;49.372;8.166;2022-07-01T06:24:21;2.10;;;1.17;;
14100;SDS011;7127;49.372;8.166;2022-07-01T06:26:49;0.80;;;0.80;;
14100;SDS011;7127;49.372;8.166;2022-07-01T06:29:16;1.90;;;0.83;;
14100;SDS011;7127;49.372;8.166;2022-07-01T06:31:43;1.10;;;1.10;;
14100;SDS011;7127;49.372;8.166;2022-07-01T06:34:10;0.90;;;0.90;;
14100;SDS011;7127;49.372;8.166;2022-07-01T06:36:37;1.10;;;1.00;;
14100;SDS011;7127;49.372;8.166;2022-07-01T06:39:04;1.70;;;1.00;;
14100;SDS011;7127;49.372;8.166;2022-07-01T06:41:32;0.80;;;0.80;;
14100;SDS011;7127;49.372;8.166;2022-07-01T06:44:00;2.37;;;1.10;;
14100;SDS011;7127;49.372;8.166;2022-07-01T06:46:27;0.70;;;0.70;;
14100;SDS011;7127;49.372;8.166;2022-07-01T06:48:55;1.37;;;0.70;;
14100;SDS011;7127;49.372;8.166;2022-07-01T06:51:23;0.90;;;0.90;;
14100;SDS011;7127;49.372;8.166;2022-07-01T06:53:50;1.33;;;0.80;;
14100;SDS011;7127;49.372;8.166;2022-07-01T06:56:17;1.00;;;0.90;;
14100;SDS011;7127;49.372;8.166;2022-07-01T06:58:46;1.23;;;1.00;;
14100;SDS011;7127;49.372;8.166;2022-07-01T07:01:13;1.00;;;0.90;;
14100;SDS011;7127;49.372;8.166;2022-07-01T07:03:40;0.93;;;0.90;;
14100;SDS011;7127;49.372;8.166;2022-07-01T07:06:07;2.00;;;1.10;;
14100;SDS011;7127;49.372;8.166;2022-07-01T07:08:34;0.80;;;0.80;;
14100;SDS011;7127;49.372;8.166;2022-07-01T07:11:01;0.73;;;0.70;;
14100;SDS011;7127;49.372;8.166;2022-07-01T07:13:29;0.80;;;0.80;;
14100;SDS011;7127;49.372;8.166;2022-07-01T07:15:58;0.70;;;0.70;;
14100;SDS011;7127;49.372;8.166;2022-07-01T07:18:25;1.07;;;0.90;;
14100;SDS011;7127;49.372;8.166;2022-07-01T07:20:52;1.10;;;1.00;;
14100;SDS011;7127;49.372;8.166;2022-07-01T07:23:20;1.13;;;1.00;;
14100;SDS011;7127;49.372;8.166;2022-07-01T07:25:47;0.80;;;0.80;;
14100;SDS011;7127;49.372;8.166;2022-07-01T07:28:15;1.07;;;0.90;;
14100;SDS011;7127;49.372;8.166;2022-07-01T07:30:43;1.20;;;0.77;;
14100;SDS011;7127;49.372;8.166;2022-07-01T07:33:14;0.87;;;0.80;;
14100;SDS011;7127;49.372;8.166;2022-07-01T07:35:44;0.70;;;0.70;;
14100;SDS011;7127;49.372;8.166;2022-07-01T07:38:11;0.77;;;0.70;;
14100;SDS011;7127;49.372;8.166;2022-07-01T07:40:39;0.70;;;0.60;;
14100;SDS011;7127;49.372;8.166;2022-07-01T07:43:07;1.00;;;0.80;;
14100;SDS011;7127;49.372;8.166;2022-07-01T07:45:34;0.60;;;0.60;;
14100;SDS011;7127;49.372;8.166;2022-07-01T07:48:02;0.63;;;0.63;;
14100;SDS011;7127;49.372;8.166;2022-07-01T07:50:38;0.60;;;0.60;;
14100;SDS011;7127;49.372;8.166;2022-07-01T07:53:19;0.63;;;0.60;;
14100;SDS011;7127;49.372;8.166;2022-07-01T07:55:49;0.87;;;0.60;;
14100;SDS011;7127;49.372;8.166;2022-07-01T07:58:25;0.40;;;0.40;;
14100;SDS011;7127;49.372;8.166;2022-07-01T08:00:53;0.97;;;0.70;;
14100;SDS011;7127;49.372;8.166;2022-07-01T08:03:21;0.90;;;0.67;;
14100;SDS011;7127;49.372;8.166;2022-07-01T08:05:52;0.90;;;0.57;;
14100;SDS011;7127;49.372;8.166;2022-07-01T08:08:23;0.80;;;0.80;;
14100;SDS011;7127;49.372;8.166;2022-07-01T08:11:05;0.87;;;0.70;;
14100;SDS011;7127;49.372;8.166;2022-07-01T08:13:34;0.80;;;0.73;;
14100;SDS011;7127;49.372;8.166;2022-07-01T08:16:18;0.60;;;0.60;;
14100;SDS011;7127;49.372;8.166;2022-07-01T08:19:27;0.67;;;0.43;;
14100;SDS011;7127;49.372;8.166;2022-07-01T08:41:28;0.70;;;0.67;;
14100;SDS011;7127;49.372;8.166;2022-07-01T09:29:15;0.77;;;0.60;;
14100;SDS011;7127;49.372;8.166;2022-07-01T09:31:47;1.23;;;0.80;;
14100;SDS011;7127;49.372;8.166;2022-07-01T09:34:15;0.73;;;0.60;;
14100;SDS011;7127;49.372;8.166;2022-07-01T09:36:51;0.97;;;0.70;;
14100;SDS011;7127;49.372;8.166;2022-07-01T09:42:43;0.77;;;0.60;;
14100;SDS011;7127;49.372;8.166;2022-07-01T09:45:24;0.80;;;0.77;;
14100;SDS011;7127;49.372;8.166;2022-07-01T09:48:00;0.80;;;0.80;;
14100;SDS011;7127;49.372;8.166;2022-07-01T09:50:34;0.80;;;0.80;;
14100;SDS011;7127;49.372;8.166;2022-07-01T09:53:23;1.20;;;0.70;;
14100;SDS011;7127;49.372;8.166;2022-07-01T09:55:52;1.67;;;0.80;;
14100;SDS011;7127;49.372;8.166;2022-07-01T09:58:19;1.10;;;0.73;;
14100;SDS011;7127;49.372;8.166;2022-07-01T10:00:48;0.60;;;0.60;;
14100;SDS011;7127;49.372;8.166;2022-07-01T10:03:18;1.43;;;0.70;;
14100;SDS011;7127;49.372;8.166;2022-07-01T10:05:47;0.90;;;0.70;;
14100;SDS011;7127;49.372;8.166;2022-07-01T10:11:28;0.70;;;0.70;;
14100;SDS011;7127;49.372;8.166;2022-07-01T10:14:13;1.03;;;0.60;;
14100;SDS011;7127;49.372;8.166;2022-07-01T10:16:43;0.60;;;0.60;;
14100;SDS011;7127;49.372;8.166;2022-07-01T10:19:26;3.20;;;1.00;;
14100;SDS011;7127;49.372;8.166;2022-07-01T10:21:56;1.80;;;1.00;;
14100;SDS011;7127;49.372;8.166;2022-07-01T10:24:27;0.87;;;0.87;;
14100;SDS011;7127;49.372;8.166;2022-07-01T10:26:58;0.80;;;0.80;;
14100;SDS011;7127;49.372;8.166;2022-07-01T10:29:26;0.70;;;0.70;;
14100;SDS011;7127;49.372;8.166;2022-07-01T10:32:00;1.03;;;0.73;;
14100;SDS011;7127;49.372;8.166;2022-07-01T10:34:33;1.90;;;0.80;;
14100;SDS011;7127;49.372;8.166;2022-07-01T10:37:02;0.73;;;0.70;;
14100;SDS011;7127;49.372;8.166;2022-07-01T10:39:31;0.70;;;0.70;;
14100;SDS011;7127;49.372;8.166;2022-07-01T10:42:30;0.70;;;0.70;;
14100;SDS011;7127;49.372;8.166;2022-07-01T10:45:02;1.00;;;0.90;;
14100;SDS011;7127;49.372;8.166;2022-07-01T10:47:35;1.27;;;0.80;;
14100;SDS011;7127;49.372;8.166;2022-07-01T10:50:09;1.13;;;0.80;;
14100;SDS011;7127;49.372;8.166;2022-07-01T10:52:37;1.10;;;1.00;;
14100;SDS011;7127;49.372;8.166;2022-07-01T10:55:05;1.20;;;0.70;;
14100;SDS011;7127;49.372;8.166;2022-07-01T10:57:35;0.60;;;0.60;;
14100;SDS011;7127;49.372;8.166;2022-07-01T11:03:06;0.97;;;0.70;;
14100;SDS011;7127;49.372;8.166;2022-07-01T11:05:35;0.60;;;0.60;;
14100;SDS011;7127;49.372;8.166;2022-07-01T11:08:04;0.83;;;0.60;;
14100;SDS011;7127;49.372;8.166;2022-07-01T11:10:32;0.60;;;0.60;;
14100;SDS011;7127;49.372;8.166;2022-07-01T11:12:59;0.90;;;0.70;;
14100;SDS011;7127;49.372;8.166;2022-07-01T11:15:26;0.80;;;0.50;;
14100;SDS011;7127;49.372;8.166;2022-07-01T11:17:55;0.63;;;0.53;;
14100;SDS011;7127;49.372;8.166;2022-07-01T11:20:26;0.80;;;0.80;;
14100;SDS011;7127;49.372;8.166;2022-07-01T11:22:55;0.77;;;0.70;;
14100;SDS011;7127;49.372;8.166;2022-07-01T11:25:22;0.70;;;0.70;;
14100;SDS011;7127;49.372;8.166;2022-07-01T11:27:50;0.60;;;0.60;;
14100;SDS011;7127;49.372;8.166;2022-07-01T11:30:18;1.80;;;0.87;;
14100;SDS011;7127;49.372;8.166;2022-07-01T11:32:47;0.70;;;0.67;;
14100;SDS011;7127;49.372;8.166;2022-07-01T11:35:15;1.27;;;0.60;;
14100;SDS011;7127;49.372;8.166;2022-07-01T11:38:14;0.83;;;0.70;;
14100;SDS011;7127;49.372;8.166;2022-07-01T11:41:00;0.50;;;0.50;;
14100;SDS011;7127;49.372;8.166;2022-07-01T11:43:31;0.70;;;0.70;;
14100;SDS011;7127;49.372;8.166;2022-07-01T11:45:59;1.70;;;0.53;;
14100;SDS011;7127;49.372;8.166;2022-07-01T11:48:29;0.80;;;0.80;;
14100;SDS011;7127;49.372;8.166;2022-07-01T11:51:01;0.67;;;0.50;;
14100;SDS011;7127;49.372;8.166;2022-07-01T11:53:35;0.70;;;0.70;;
14100;SDS011;7127;49.372;8.166;2022-07-01T11:56:02;0.60;;;0.60;;
14100;SDS011;7127;49.372;8.166;2022-07-01T11:58:40;0.77;;;0.60;;
14100;SDS011;7127;49.372;8.166;2022-07-01T12:01:08;0.80;;;0.60;;
14100;SDS011;7127;49.372;8.166;2022-07-01T12:03:36;0.98;;;0.80;;
14100;SDS011;7127;49.372;8.166;2022-07-01T12:06:03;0.70;;;0.53;;
14100;SDS011;7127;49.372;8.166;2022-07-01T12:08:31;1.02;;;0.52;;
14100;SDS011;7127;49.372;8.166;2022-07-01T12:11:00;0.65;;;0.50;;
14100;SDS011;7127;49.372;8.166;2022-07-01T12:13:27;0.35;;;0.35;;
14100;SDS011;7127;49.372;8.166;2022-07-01T12:15:58;0.43;;;0.43;;
14100;SDS011;7127;49.372;8.166;2022-07-01T12:18:32;0.35;;;0.35;;
14100;SDS011;7127;49.372;8.166;2022-07-01T12:20:59;0.95;;;0.70;;
14100;SDS011;7127;49.372;8.166;2022-07-01T12:23:27;0.57;;;0.57;;
14100;SDS011;7127;49.372;8.166;2022-07-01T12:25:54;0.60;;;0.60;;
14100;SDS011;7127;49.372;8.166;2022-07-01T12:28:32;0.50;;;0.50;;
14100;SDS011;7127;49.372;8.166;2022-07-01T12:31:04;0.73;;;0.63;;
14100;SDS011;7127;49.372;8.166;2022-07-01T12:33:36;0.70;;;0.68;;
14100;SDS011;7127;49.372;8.166;2022-07-01T12:36:05;0.40;;;0.40;;
14100;SDS011;7127;49.372;8.166;2022-07-01T12:38:34;0.40;;;0.40;;
14100;SDS011;7127;49.372;8.166;2022-07-01T12:41:01;1.90;;;0.30;;
14100;SDS011;7127;49.372;8.166;2022-07-01T12:43:29;1.05;;;0.50;;
14100;SDS011;7127;49.372;8.166;2022-07-01T12:46:02;0.32;;;0.32;;
14100;SDS011;7127;49.372;8.166;2022-07-01T12:48:30;0.40;;;0.40;;
14100;SDS011;7127;49.372;8.166;2022-07-01T12:51:14;0.40;;;0.40;;
14100;SDS011;7127;49.372;8.166;2022-07-01T12:53:42;0.45;;;0.45;;
14100;SDS011;7127;49.372;8.166;2022-07-01T12:56:11;0.30;;;0.30;;
14100;SDS011;7127;49.372;8.166;2022-07-01T12:58:49;0.93;;;0.60;;
14100;SDS011;7127;49.372;8.166;2022-07-01T13:01:19;0.80;;;0.60;;
14100;SDS011;7127;49.372;8.166;2022-07-01T13:03:47;1.45;;;0.50;;
14100;SDS011;7127;49.372;8.166;2022-07-01T13:06:14;0.73;;;0.50;;
14100;SDS011;7127;49.372;8.166;2022-07-01T13:08:41;0.30;;;0.30;;
14100;SDS011;7127;49.372;8.166;2022-07-01T13:11:09;0.68;;;0.40;;
14100;SDS011;7127;49.372;8.166;2022-07-01T13:13:36;0.15;;;0.10;;
14100;SDS011;7127;49.372;8.166;2022-07-01T13:16:03;4.17;;;0.30;;
14100;SDS011;7127;49.372;8.166;2022-07-01T13:18:32;0.90;;;0.47;;
14100;SDS011;7127;49.372;8.166;2022-07-01T13:21:00;0.50;;;0.40;;
14100;SDS011;7127;49.372;8.166;2022-07-01T13:23:27;0.45;;;0.40;;
14100;SDS011;7127;49.372;8.166;2022-07-01T13:25:54;0.43;;;0.30;;
14100;SDS011;7127;49.372;8.166;2022-07-01T13:28:21;0.90;;;0.60;;
14100;SDS011;7127;49.372;8.166;2022-07-01T13:30:49;0.47;;;0.40;;
14100;SDS011;7127;49.372;8.166;2022-07-01T13:33:16;0.40;;;0.30;;
14100;SDS011;7127;49.372;8.166;2022-07-01T13:35:44;0.40;;;0.40;;
14100;SDS011;7127;49.372;8.166;2022-07-01T13:38:11;0.85;;;0.45;;
14100;SDS011;7127;49.372;8.166;2022-07-01T13:40:39;0.45;;;0.32;;
14100;SDS011;7127;49.372;8.166;2022-07-01T13:43:06;0.20;;;0.20;;
14100;SDS011;7127;49.372;8.166;2022-07-01T13:45:33;0.60;;;0.38;;
14100;SDS011;7127;49.372;8.166;2022-07-01T13:48:27;0.30;;;0.30;;
14100;SDS011;7127;49.372;8.166;2022-07-01T13:53:54;0.20;;;0.20;;
14100;SDS011;7127;49.372;8.166;2022-07-01T13:56:23;0.85;;;0.43;;
14100;SDS011;7127;49.372;8.166;2022-07-01T13:58:51;0.75;;;0.50;;
14100;SDS011;7127;49.372;8.166;2022-07-01T14:01:19;0.57;;;0.40;;
14100;SDS011;7127;49.372;8.166;2022-07-01T14:03:48;0.30;;;0.30;;
14100;SDS011;7127;49.372;8.166;2022-07-01T14:06:18;0.43;;;0.13;;
14100;SDS011;7127;49.372;8.166;2022-07-01T14:08:46;0.40;;;0.40;;
14100;SDS011;7127;49.372;8.166;2022-07-01T14:11:13;0.50;;;0.50;;
14100;SDS011;7127;49.372;8.166;2022-07-01T14:13:41;0.30;;;0.30;;
14100;SDS011;7127;49.372;8.166;2022-07-01T14:16:08;0.20;;;0.20;;
14100;SDS011;7127;49.372;8.166;2022-07-01T14:18:36;0.43;;;0.28;;
14100;SDS011;7127;49.372;8.166;2022-07-01T14:21:04;0.80;;;0.43;;
14100;SDS011;7127;49.372;8.166;2022-07-01T14:23:32;0.43;;;0.38;;
14100;SDS011;7127;49.372;8.166;2022-07-01T14:26:00;0.95;;;0.30;;
14100;SDS011;7127;49.372;8.166;2022-07-01T14:28:27;0.30;;;0.30;;
14100;SDS011;7127;49.372;8.166;2022-07-01T14:30:55;0.30;;;0.30;;
14100;SDS011;7127;49.372;8.166;2022-07-01T14:33:22;0.28;;;0.20;;
14100;SDS011;7127;49.372;8.166;2022-07-01T14:35:49;0.32;;;0.32;;
14100;SDS011;7127;49.372;8.166;2022-07-01T14:38:17;0.52;;;0.38;;
14100;SDS011;7127;49.372;8.166;2022-07-01T14:40:45;0.20;;;0.20;;
14100;SDS011;7127;49.372;8.166;2022-07-01T14:43:13;0.52;;;0.20;;
14100;SDS011;7127;49.372;8.166;2022-07-01T14:45:40;0.75;;;0.28;;
14100;SDS011;7127;49.372;8.166;2022-07-01T14:48:07;0.30;;;0.30;;
14100;SDS011;7127;49.372;8.166;2022-07-01T14:50:35;0.40;;;0.30;;
14100;SDS011;7127;49.372;8.166;2022-07-01T14:53:02;0.20;;;0.20;;
14100;SDS011;7127;49.372;8.166;2022-07-01T14:55:30;0.28;;;0.28;;
14100;SDS011;7127;49.372;8.166;2022-07-01T14:57:58;1.17;;;0.40;;
14100;SDS011;7127;49.372;8.166;2022-07-01T15:00:26;0.73;;;0.40;;
14100;SDS011;7127;49.372;8.166;2022-07-01T15:02:54;0.40;;;0.30;;
14100;SDS011;7127;49.372;8.166;2022-07-01T15:05:21;0.43;;;0.20;;
14100;SDS011;7127;49.372;8.166;2022-07-01T15:07:49;0.55;;;0.30;;
14100;SDS011;7127;49.372;8.166;2022-07-01T15:10:17;0.50;;;0.40;;
14100;SDS011;7127;49.372;8.166;2022-07-01T15:12:44;0.57;;;0.20;;
14100;SDS011;7127;49.372;8.166;2022-07-01T15:15:12;0.15;;;0.13;;
14100;SDS011;7127;49.372;8.166;2022-07-01T15:17:41;0.28;;;0.20;;
14100;SDS011;7127;49.372;8.166;2022-07-01T15:20:09;0.28;;;0.28;;
14100;SDS011;7127;49.372;8.166;2022-07-01T15:22:37;0.30;;;0.30;;
14100;SDS011;7127;49.372;8.166;2022-07-01T15:25:05;0.50;;;0.30;;
14100;SDS011;7127;49.372;8.166;2022-07-01T15:27:33;0.28;;;0.28;;
14100;SDS011;7127;49.372;8.166;2022-07-01T15:30:00;0.45;;;0.25;;
14100;SDS011;7127;49.372;8.166;2022-07-01T15:32:29;0.30;;;0.20;;
14100;SDS011;7127;49.372;8.166;2022-07-01T15:34:56;5.00;;;0.57;;
14100;SDS011;7127;49.372;8.166;2022-07-01T15:37:24;0.40;;;0.30;;
14100;SDS011;7127;49.372;8.166;2022-07-01T15:39:51;0.55;;;0.30;;
14100;SDS011;7127;49.372;8.166;2022-07-01T15:42:18;0.32;;;0.30;;
14100;SDS011;7127;49.372;8.166;2022-07-01T15:50:04;1.17;;;0.70;;
14100;SDS011;7127;49.372;8.166;2022-07-01T15:52:32;0.77;;;0.60;;
14100;SDS011;7127;49.372;8.166;2022-07-01T15:54:58;0.35;;;0.35;;
14100;SDS011;7127;49.372;8.166;2022-07-01T15:57:25;0.30;;;0.30;;
14100;SDS011;7127;49.372;8.166;2022-07-01T15:59:52;0.32;;;0.32;;
14100;SDS011;7127;49.372;8.166;2022-07-01T16:02:20;0.10;;;0.10;;
14100;SDS011;7127;49.372;8.166;2022-07-01T16:04:47;0.45;;;0.40;;
14100;SDS011;7127;49.372;8.166;2022-07-01T16:07:19;0.32;;;0.32;;
14100;SDS011;7127;49.372;8.166;2022-07-01T16:09:50;0.22;;;0.22;;
14100;SDS011;7127;49.372;8.166;2022-07-01T16:12:24;0.40;;;0.40;;
14100;SDS011;7127;49.372;8.166;2022-07-01T16:14:52;0.35;;;0.28;;
14100;SDS011;7127;49.372;8.166;2022-07-01T16:17:23;0.68;;;0.40;;
14100;SDS011;7127;49.372;8.166;2022-07-01T16:19:50;0.20;;;0.20;;
14100;SDS011;7127;49.372;8.166;2022-07-01T16:22:20;0.43;;;0.40;;
14100;SDS011;7127;49.372;8.166;2022-07-01T16:24:50;0.10;;;0.10;;
14100;SDS011;7127;49.372;8.166;2022-07-01T16:27:18;0.10;;;0.10;;
14100;SDS011;7127;49.372;8.166;2022-07-01T16:29:46;0.20;;;0.20;;
14100;SDS011;7127;49.372;8.166;2022-07-01T16:32:14;0.50;;;0.30;;
14100;SDS011;7127;49.372;8.166;2022-07-01T16:34:42;0.20;;;0.20;;